createdAt,value
2019-03-01T00:05:47.662Z,8.27
2019-03-01T00:13:01.820Z,4.03
2019-03-01T00:20:25.789Z,9.70
2019-03-01T00:27:51.772Z,3.70
2019-03-01T00:34:52.566Z,6.73
2019-03-01T00:42:05.110Z,10.40
2019-03-01T00:48:20.709Z,9.83
2019-03-01T00:54:46.563Z,2.73
2019-03-01T01:01:25.517Z,6.37
2019-03-01T01:07:55.578Z,5.20
2019-03-01T01:14:22.402Z,10.63
2019-03-01T01:21:01.355Z,8.63
2019-03-01T01:27:28.991Z,7.07
2019-03-01T01:33:58.522Z,6.60
2019-03-01T01:40:26.830Z,9.90
2019-03-01T01:46:58.413Z,8.33
2019-03-01T01:53:26.620Z,5.50
2019-03-01T01:59:54.220Z,13.30
2019-03-01T02:06:40.474Z,6.37
2019-03-01T02:13:08.311Z,10.73
2019-03-01T02:19:35.934Z,5.97
2019-03-01T02:26:14.888Z,7.10
2019-03-01T02:32:50.075Z,6.00
2019-03-01T02:39:20.884Z,10.37
2019-03-01T02:45:11.136Z,6.40
2019-03-01T02:51:37.803Z,5.60
2019-03-01T02:58:16.761Z,9.27
2019-03-01T03:04:42.951Z,5.93
2019-03-01T03:11:08.776Z,6.00
2019-03-01T03:17:46.608Z,4.40
2019-03-01T03:24:13.546Z,4.43
2019-03-01T03:30:41.166Z,4.23
2019-03-01T03:37:11.928Z,4.83
2019-03-01T03:43:53.224Z,5.73
2019-03-01T03:50:10.981Z,6.33
2019-03-01T03:56:38.496Z,5.60
2019-03-01T04:03:15.733Z,8.17
2019-03-01T04:09:44.583Z,6.97
2019-03-01T04:16:09.158Z,4.30
2019-03-01T04:22:48.111Z,7.43
2019-03-01T04:29:13.955Z,9.00
2019-03-01T04:35:40.995Z,6.73
2019-03-01T04:42:06.811Z,12.00
2019-03-01T04:51:41.502Z,6.00
2019-03-01T04:58:22.155Z,11.07
2019-03-01T05:04:51.322Z,7.17
2019-03-01T05:11:15.904Z,5.40
2019-03-01T05:17:41.758Z,3.90
2019-03-01T05:24:18.661Z,2.20
2019-03-01T05:30:42.473Z,10.23
2019-03-01T05:37:09.134Z,2.23
2019-03-01T05:43:48.463Z,2.70
2019-03-01T05:53:55.953Z,3.73
2019-03-01T06:00:23.312Z,4.53
2019-03-01T06:08:17.005Z,2.67
2019-03-01T06:15:43.010Z,4.30
2019-03-01T06:23:05.380Z,1.80
2019-03-01T06:30:30.691Z,3.10
2019-03-01T06:37:43.492Z,2.53
2019-03-01T06:44:57.799Z,1.40
2019-03-01T06:55:14.900Z,2.50
2019-03-01T07:05:26.578Z,1.60
2019-03-01T07:11:52.784Z,4.63
2019-03-01T07:18:29.714Z,1.50
2019-03-01T07:24:55.534Z,1.10
2019-03-01T07:31:23.373Z,6.83
2019-03-01T07:38:00.300Z,1.17
2019-03-01T07:44:27.894Z,2.50
2019-03-01T07:51:14.163Z,2.90
2019-03-01T07:57:36.800Z,1.93
2019-03-01T08:04:14.658Z,4.13
2019-03-01T08:10:49.806Z,1.40
2019-03-01T08:17:15.234Z,1.60
2019-03-01T08:23:41.446Z,1.43
2019-03-01T08:30:10.273Z,2.20
2019-03-01T08:36:38.674Z,1.50
2019-03-01T08:43:12.013Z,2.17
2019-03-01T08:49:35.833Z,1.97
2019-03-01T08:55:52.123Z,1.53
2019-03-01T09:02:19.055Z,3.90
2019-03-01T09:08:58.838Z,1.73
2019-03-01T09:15:26.182Z,1.50
2019-03-01T09:21:51.756Z,1.90
2019-03-01T09:28:22.524Z,2.53
2019-03-01T09:34:24.203Z,4.27
2019-03-01T09:40:50.056Z,3.70
2019-03-01T09:47:18.769Z,6.93
2019-03-01T09:57:41.281Z,12.77
2019-03-01T10:04:17.873Z,8.70
2019-03-01T10:10:44.038Z,14.23
2019-03-01T10:17:07.833Z,8.43
2019-03-01T10:23:33.660Z,14.10
2019-03-01T10:30:20.524Z,16.17
2019-03-01T10:36:49.534Z,23.10
2019-03-01T10:43:17.138Z,20.07
2019-03-01T10:49:58.141Z,14.07
2019-03-01T10:59:47.987Z,15.90
2019-03-01T11:06:11.779Z,12.87
2019-03-01T11:12:45.819Z,8.50
2019-03-01T11:19:17.761Z,8.70
2019-03-01T11:25:56.359Z,7.20
2019-03-01T11:32:22.539Z,10.20
2019-03-01T11:38:48.357Z,13.87
2019-03-01T11:45:29.885Z,15.53
2019-03-01T11:51:56.966Z,26.07
2019-03-01T12:01:58.112Z,23.77
2019-03-01T12:08:25.764Z,25.30
2019-03-01T12:14:32.352Z,29.70
2019-03-01T12:21:15.413Z,26.27
2019-03-01T12:27:44.433Z,38.53
2019-03-01T12:34:10.250Z,37.00
2019-03-01T12:40:47.175Z,37.90
2019-03-01T12:47:16.828Z,43.57
2019-03-01T12:53:40.629Z,56.67
2019-03-01T13:03:09.233Z,60.73
2019-03-01T13:09:37.067Z,55.77
2019-03-01T13:15:37.874Z,62.17
2019-03-01T13:22:08.743Z,52.07
2019-03-01T13:28:33.317Z,53.63
2019-03-01T13:34:59.169Z,51.77
2019-03-01T13:41:38.127Z,41.57
2019-03-01T13:48:03.297Z,32.30
2019-03-01T13:54:28.591Z,33.83
2019-03-01T14:04:45.058Z,30.73
2019-03-01T14:11:23.536Z,32.20
2019-03-01T14:17:16.267Z,27.53
2019-03-01T14:23:42.126Z,22.47
2019-03-01T14:30:08.786Z,23.97
2019-03-01T14:36:49.789Z,27.07
2019-03-01T14:43:20.298Z,17.90
2019-03-01T14:49:45.589Z,18.73
2019-03-01T14:56:39.707Z,13.60
2019-03-01T15:06:29.540Z,13.13
2019-03-01T15:13:09.314Z,19.43
2019-03-01T15:19:37.534Z,21.77
2019-03-01T15:26:05.371Z,20.23
2019-03-01T15:32:44.324Z,19.63
2019-03-01T15:39:12.166Z,22.93
2019-03-01T15:45:43.033Z,28.60
2019-03-01T15:52:13.865Z,18.77
2019-03-01T15:58:55.382Z,22.10
2019-03-01T16:09:11.780Z,26.67
2019-03-01T16:15:38.920Z,21.77
2019-03-01T16:22:10.696Z,20.60
2019-03-01T16:28:47.623Z,27.07
2019-03-01T16:35:16.613Z,17.70
2019-03-01T16:41:42.783Z,24.83
2019-03-01T16:48:10.134Z,18.43
2019-03-01T16:54:54.761Z,26.23
2019-03-01T17:01:26.028Z,22.73
2019-03-01T17:11:44.601Z,24.87
2019-03-01T17:17:38.495Z,23.73
2019-03-01T17:24:18.269Z,23.23
2019-03-01T17:30:46.698Z,25.37
2019-03-01T17:37:14.064Z,27.90
2019-03-01T17:43:44.008Z,37.27
2019-03-01T17:50:31.177Z,25.33
2019-03-01T17:57:01.516Z,26.83
2019-03-01T18:03:26.848Z,23.37
2019-03-01T18:10:05.519Z,20.90
2019-03-01T18:15:54.897Z,23.73
2019-03-01T18:22:26.601Z,23.30
2019-03-01T18:29:00.908Z,21.93
2019-03-01T18:35:23.832Z,22.33
2019-03-01T18:41:51.679Z,17.00
2019-03-01T18:48:17.264Z,14.63
2019-03-01T18:54:43.135Z,17.97
2019-03-01T19:01:16.204Z,13.10
2019-03-01T19:07:47.074Z,17.13
2019-03-01T19:17:50.855Z,16.73
2019-03-01T19:24:33.038Z,9.30
2019-03-01T19:31:11.638Z,12.57
2019-03-01T19:37:50.935Z,10.23
2019-03-01T19:44:25.671Z,10.10
2019-03-01T19:50:58.427Z,9.70
2019-03-01T19:57:26.167Z,15.90
2019-03-01T20:00:28.035Z,12.00
2019-03-01T20:07:07.329Z,12.80
2019-03-01T20:13:36.177Z,16.53
2019-03-01T20:20:04.023Z,43.70
2019-03-01T20:26:28.641Z,17.40
2019-03-01T20:32:58.586Z,18.40
2019-03-01T20:38:48.791Z,17.90
2019-03-01T20:45:25.834Z,15.70
2019-03-01T20:51:49.514Z,19.90
2019-03-01T20:58:19.748Z,24.60
2019-03-01T21:08:33.452Z,21.60
2019-03-01T21:15:03.063Z,20.17
2019-03-01T21:21:28.912Z,19.03
2019-03-01T21:28:10.253Z,16.80
2019-03-01T21:34:47.162Z,17.83
2019-03-01T21:41:33.431Z,20.37
2019-03-01T21:48:12.375Z,16.70
2019-03-01T21:54:40.212Z,16.80
2019-03-01T22:01:06.022Z,19.20
2019-03-01T22:07:01.831Z,19.47
2019-03-01T22:13:27.397Z,25.73
2019-03-01T22:19:57.943Z,21.80
2019-03-01T22:26:24.066Z,18.13
2019-03-01T22:33:00.708Z,20.63
2019-03-01T22:38:55.502Z,19.70
2019-03-01T22:45:28.237Z,16.40
2019-03-01T22:51:55.234Z,17.27
2019-03-01T22:58:24.084Z,23.57
2019-03-01T23:04:51.520Z,21.90
2019-03-01T23:14:53.641Z,20.00
2019-03-01T23:21:19.497Z,22.17
2019-03-01T23:27:43.296Z,18.07
2019-03-01T23:34:10.322Z,22.27
2019-03-01T23:40:00.997Z,20.10
2019-03-01T23:46:31.677Z,20.63
2019-03-01T23:52:58.772Z,24.33
2019-03-01T23:59:35.426Z,16.60
